Latest Weather Observations for Birdsville

IDQ60801

Issued at 7:52 am EST Tuesday 22 January 2019 (issued every 10 minutes, with the page automatically refreshed every 10 minutes)

About weather observations | Map of weather stations | Latest weather observations for QLD | Other Formats
Station Details ID: 038026 Name: BIRDSVILLE AIRPORT Lat: -25.90 Lon: 139.35 Height: 46.6 m
Data from the previous 72 hours. | See also: Recent months at Birdsville
Date/Time
EST
Temp
°C
App
Temp
°C
Dew
Point
°C
Rel
Hum
%
Delta-T
°C
Wind Press
QNH
hPa
Press
MSL
hPa
Rain since
9am
mm
Dir  Spd
km/h
Gust
km/h
Spd
kts
Gust
kts
22/07:30am 33.9 30.7 9.9 23 13.8 N 17 22 9 12 1009.5 1009.1 0.0
22/07:00am 32.2 30.3 9.1 24 13.0 NNE 9 11 5 6 1009.2 1008.8 0.0
22/06:30am 32.3 31.1 10.4 26 12.6 NNE 7 9 4 5 1009.0 1008.6 0.0
22/06:00am 32.3 31.3 10.4 26 12.6 N 6 6 3 3 1008.6 1008.2 0.0
22/05:30am 32.2 30.8 9.7 25 12.8 N 7 9 4 5 1008.1 1007.7 0.0
22/05:00am 33.0 30.5 9.7 24 13.3 N 13 17 7 9 1007.7 1007.3 0.0
22/04:30am 33.4 30.4 9.4 23 13.7 N 15 19 8 10 1007.3 1006.9 0.0
22/04:00am 34.2 31.2 9.4 22 14.2 N 15 19 8 10 1007.1 1006.7 0.0
22/03:30am 35.0 31.8 10.1 22 14.4 N 17 19 9 10 1006.9 1006.5 0.0
22/03:00am 35.5 31.7 9.8 21 14.9 N 20 24 11 13 1006.9 1006.5 0.0
22/02:30am 35.4 32.1 9.7 21 14.8 N 17 20 9 11 1006.9 1006.5 0.0
22/02:00am 34.8 32.2 9.3 21 14.6 NNE 13 17 7 9 1007.0 1006.6 0.0
22/01:30am 34.4 31.4 7.5 19 14.9 NNE 13 13 7 7 1007.3 1006.9 0.0
22/01:00am 35.6 32.8 8.4 19 15.4 NNE 13 17 7 9 1007.6 1007.2 0.0
22/12:30am 35.7 33.5 7.7 18 15.7 N 9 11 5 6 1007.6 1007.2 0.0
22/12:00am 36.1 33.7 7.2 17 16.2 N 9 11 5 6 1007.8 1007.4 0.0
 
Date/Time
EST
Temp
°C
App
Temp
°C
Dew
Point
°C
Rel
Hum
%
Delta-T
°C
Wind Press
QNH
hPa
Press
MSL
hPa
Rain since
9am
mm
Dir  Spd
km/h
Gust
km/h
Spd
kts
Gust
kts
21/11:30pm 36.4 34.7 8.3 18 16.0 N 7 9 4 5 1008.0 1007.6 0.0
21/11:00pm 37.2 34.8 7.2 16 16.9 N 9 11 5 6 1008.2 1007.8 0.0
21/10:30pm 37.5 35.2 7.4 16 17.0 NNE 9 9 5 5 1008.2 1007.8 0.0
21/10:00pm 38.1 35.7 7.0 15 17.5 NNE 9 11 5 6 1008.0 1007.6 0.0
21/09:30pm 38.7 35.8 6.4 14 18.0 NE 11 11 6 6 1007.9 1007.5 0.0
21/09:00pm 39.6 37.2 7.1 14 18.4 NE 9 11 5 6 1007.6 1007.2 0.0
21/08:30pm 40.6 38.0 7.9 14 18.8 NE 11 11 6 6 1007.4 1007.0 0.0
21/08:00pm 41.6 38.2 7.6 13 19.6 NE 15 17 8 9 1007.0 1006.6 0.0
21/07:30pm 42.3 39.1 7.0 12 20.2 NE 13 20 7 11 1006.8 1006.4 0.0
21/07:00pm 42.8 39.7 7.3 12 20.5 NE 13 17 7 9 1006.5 1006.1 0.0
21/06:30pm 42.8 39.7 7.3 12 20.4 NNE 13 17 7 9 1006.3 1005.9 0.0
21/06:00pm 43.1 38.6 6.3 11 21.0 NNE 19 28 10 15 1006.2 1005.8 0.0
21/05:30pm 44.1 42.3 7.1 11 21.4 W 6 13 3 7 1006.1 1005.7 0.0
21/05:00pm 44.0 40.5 7.0 11 21.4 ESE 15 22 8 12 1006.3 1005.9 0.0
21/04:30pm 43.8 41.4 6.8 11 21.2 E 9 20 5 11 1006.5 1006.1 0.0
21/04:00pm 44.5 40.3 7.4 11 21.6 NE 19 32 10 17 1006.8 1006.4 0.0
21/03:30pm 43.6 40.7 6.7 11 21.1 E 11 20 6 11 1007.0 1006.6 0.0
21/03:00pm 42.9 39.6 6.2 11 20.9 NNE 13 26 7 14 1007.3 1006.9 0.0
21/02:30pm 42.8 39.8 6.1 11 20.8 NE 11 20 6 11 1007.6 1007.2 0.0
21/02:00pm 43.6 40.4 6.7 11 21.2 ENE 13 26 7 14 1007.8 1007.4 0.0
21/01:30pm 43.1 40.1 7.6 12 20.6 ENE 13 22 7 12 1008.4 1008.0 0.0
21/01:00pm 41.5 38.2 6.4 12 19.9 N 13 22 7 12 1008.7 1008.3 0.0
21/12:30pm 41.3 36.8 6.2 12 19.8 NE 19 30 10 16 1009.3 1008.9 0.0
21/12:00pm 41.9 38.5 7.8 13 19.7 N 15 28 8 15 1009.7 1009.3 0.0
21/11:30am 42.0 38.2 9.0 14 19.4 NNE 19 30 10 16 1010.0 1009.6 0.0
21/11:00am 40.1 35.9 7.5 14 18.6 N 19 26 10 14 1010.5 1010.1 0.0
21/10:30am 39.2 34.1 7.8 15 17.9 N 24 33 13 18 1010.8 1010.4 0.0
21/10:00am 38.3 33.7 8.1 16 17.3 N 22 30 12 16 1010.7 1010.3 0.0
21/09:30am 37.3 33.2 6.3 15 17.2 NNE 17 22 9 12 1010.7 1010.3 0.0
21/09:00am 36.4 32.4 6.6 16 16.5 NNE 17 22 9 12 1010.6 1010.2 0.0
21/08:30am 35.7 32.7 6.0 16 16.2 NE 11 13 6 7 1010.7 1010.3 0.0
21/08:00am 34.0 31.4 6.3 18 15.1 NE 9 11 5 6 1010.5 1010.1 0.0
21/07:30am 31.8 31.2 7.5 22 13.3 CALM 0 0 0 0 1010.2 1009.8 0.0
21/07:00am 30.5 29.7 6.4 22 12.9 CALM 0 0 0 0 1009.7 1009.3 0.0
21/06:30am 30.7 29.9 6.6 22 13.0 CALM 0 0 0 0 1009.3 1008.9 0.0
21/06:00am 30.5 29.4 5.0 20 13.3 CALM 0 4 0 2 1009.0 1008.6 0.0
21/05:30am 31.7 29.8 6.7 21 13.5 N 6 7 3 4 1008.6 1008.2 0.0
21/05:00am 32.3 30.0 5.7 19 14.2 N 7 9 4 5 1008.2 1007.8 0.0
21/04:30am 32.9 30.9 6.2 19 14.4 NNW 6 7 3 4 1008.0 1007.6 0.0
21/04:00am 33.6 31.4 6.0 18 14.9 N 7 9 4 5 1007.9 1007.5 0.0
21/03:30am 33.9 32.1 5.4 17 15.3 WSW 4 7 2 4 1008.0 1007.6 0.0
21/03:00am 35.1 32.4 5.5 16 16.0 WNW 9 11 5 6 1008.1 1007.7 0.0
21/02:30am 35.5 33.0 4.9 15 16.4 NW 7 11 4 6 1008.1 1007.7 0.0
21/02:00am 35.2 33.1 5.6 16 16.1 NNW 6 9 3 5 1008.1 1007.7 0.0
21/01:30am 33.9 30.6 6.3 18 15.0 SW 13 17 7 9 1008.3 1007.9 0.0
21/01:00am 35.7 33.1 6.0 16 16.3 N 9 11 5 6 1008.2 1007.8 0.0
21/12:30am 35.0 33.0 7.1 18 15.5 NNE 7 9 4 5 1008.3 1007.9 0.0
21/12:00am 35.5 33.2 7.6 18 15.6 NE 9 11 5 6 1008.4 1008.0 0.0
 
Date/Time
EST
Temp
°C
App
Temp
°C
Dew
Point
°C
Rel
Hum
%
Delta-T
°C
Wind Press
QNH
hPa
Press
MSL
hPa
Rain since
9am
mm
Dir  Spd
km/h
Gust
km/h
Spd
kts
Gust
kts
20/11:30pm 36.6 33.6 7.6 17 16.3 NE 13 15 7 8 1008.6 1008.2 0.0
20/11:00pm 37.7 34.5 8.5 17 16.8 NE 15 17 8 9 1008.6 1008.2 0.0
20/10:30pm 38.8 34.9 8.5 16 17.4 NE 19 20 10 11 1008.5 1008.1 0.0
20/10:00pm 38.8 35.5 9.4 17 17.2 ENE 17 19 9 10 1008.3 1007.9 0.0
20/09:30pm 39.5 36.8 9.0 16 17.7 NE 13 15 7 8 1008.1 1007.7 0.0
20/09:00pm 40.8 38.1 9.1 15 18.6 ENE 13 17 7 9 1008.0 1007.6 0.0
20/08:30pm 41.4 39.1 10.5 16 18.5 E 13 15 7 8 1007.7 1007.3 0.0
20/08:00pm 42.4 39.7 10.3 15 19.3 E 15 20 8 11 1007.3 1006.9 0.0
20/07:30pm 43.2 40.0 9.9 14 19.9 ESE 17 28 9 15 1006.9 1006.5 0.0
20/07:00pm 43.7 39.4 9.2 13 20.5 ESE 22 28 12 15 1006.5 1006.1 0.0
20/06:30pm 44.1 40.8 9.5 13 20.6 ESE 17 24 9 13 1006.2 1005.8 0.0
20/06:00pm 44.4 40.8 9.8 13 20.8 E 19 28 10 15 1006.1 1005.7 0.0
20/05:30pm 44.7 40.8 8.8 12 21.3 ESE 19 26 10 14 1006.3 1005.9 0.0
20/05:00pm 44.7 43.3 8.8 12 21.3 ESE 6 13 3 7 1006.4 1006.0 0.0
20/04:30pm 44.6 40.7 8.7 12 21.2 ESE 19 33 10 18 1006.7 1006.3 0.0
20/04:00pm 44.4 41.2 8.6 12 21.2 E 15 22 8 12 1007.0 1006.6 0.0
20/03:30pm 44.8 42.5 8.9 12 21.3 E 11 28 6 15 1007.3 1006.9 0.0
20/03:00pm 44.0 40.0 8.3 12 21.0 E 19 24 10 13 1007.7 1007.3 0.0
20/02:30pm 44.4 41.6 8.6 12 21.1 SE 13 22 7 12 1008.0 1007.6 0.0
20/02:00pm 44.4 41.2 8.6 12 21.2 NE 15 35 8 19 1008.5 1008.1 0.0
20/01:30pm 43.8 39.8 8.1 12 20.9 ENE 19 28 10 15 1008.8 1008.4 0.0
20/01:00pm 43.7 41.5 9.2 13 20.5 NNW 11 17 6 9 1009.1 1008.7 0.0
20/12:30pm 43.1 39.6 8.8 13 20.2 N 17 24 9 13 1009.6 1009.2 0.0
20/12:00pm 42.9 40.1 8.6 13 20.1 N 13 22 7 12 1009.9 1009.5 0.0
20/11:30am 42.2 38.2 9.2 14 19.5 NNW 20 30 11 16 1010.2 1009.8 0.0
20/11:00am 41.8 39.0 9.9 15 19.0 N 15 22 8 12 1010.5 1010.1 0.0
20/10:30am 41.0 38.5 11.1 17 18.0 NE 15 26 8 14 1010.8 1010.4 0.0
20/10:00am 40.5 38.2 11.6 18 17.5 NNE 15 24 8 13 1010.8 1010.4 0.0
20/09:30am 39.8 37.1 11.8 19 17.0 E 17 22 9 12 1010.9 1010.5 0.0
20/09:00am 38.5 35.4 12.3 21 15.9 SE 20 30 11 16 1010.9 1010.5 0.0
20/08:30am 37.4 33.3 12.8 23 15.0 SE 26 30 14 16 1010.7 1010.3 0.0
20/08:00am 36.6 33.9 12.8 24 14.5 SE 19 28 10 15 1010.6 1010.2 0.0
20/07:30am 35.1 34.2 12.7 26 13.5 S 9 13 5 7 1010.4 1010.0 0.0
20/07:00am 34.0 33.4 12.4 27 12.9 SSE 7 9 4 5 1010.2 1009.8 0.0
20/06:30am 33.6 32.9 12.0 27 12.8 ESE 7 9 4 5 1009.8 1009.4 0.0
20/06:00am 33.6 32.5 12.0 27 12.8 SE 9 13 5 7 1009.5 1009.1 0.0
20/05:30am 33.6 32.1 12.0 27 12.8 SSE 11 13 6 7 1009.0 1008.6 0.0
20/05:00am 34.0 32.9 11.8 26 13.2 SSE 9 13 5 7 1008.6 1008.2 0.0
20/04:30am 34.7 32.8 11.8 25 13.6 SSE 13 17 7 9 1008.3 1007.9 0.0
20/04:00am 34.9 33.1 12.0 25 13.7 SSE 13 17 7 9 1008.3 1007.9 0.0
20/03:30am 35.3 33.2 12.3 25 13.8 SSE 15 19 8 10 1008.2 1007.8 0.0
20/03:00am 35.9 34.1 12.2 24 14.3 SSE 13 19 7 10 1008.2 1007.8 0.0
20/02:30am 36.2 34.3 11.8 23 14.6 SSE 13 15 7 8 1008.3 1007.9 0.0
20/02:00am 37.4 34.8 12.1 22 15.3 SSE 17 20 9 11 1008.6 1008.2 0.0
20/01:30am 37.7 35.6 12.3 22 15.4 SSE 15 20 8 11 1008.8 1008.4 0.0
20/01:00am 37.9 35.5 12.5 22 15.5 SE 17 22 9 12 1009.0 1008.6 0.0
20/12:30am 38.4 35.5 12.2 21 15.9 SE 19 26 10 14 1009.1 1008.7 0.0
20/12:00am 38.8 35.8 12.5 21 16.1 SE 20 26 11 14 1009.2 1008.8 0.0
 
Date/Time
EST
Temp
°C
App
Temp
°C
Dew
Point
°C
Rel
Hum
%
Delta-T
°C
Wind Press
QNH
hPa
Press
MSL
hPa
Rain since
9am
mm
Dir  Spd
km/h
Gust
km/h
Spd
kts
Gust
kts
19/11:30pm 39.6 36.2 12.4 20 16.6 SE 22 28 12 15 1009.3 1008.9 0.0
19/11:00pm 40.1 36.4 12.8 19 16.8 SSE 24 33 13 18 1009.1 1008.7 0.0
19/10:30pm 40.7 36.7 11.7 18 17.6 SSE 24 32 13 17 1008.8 1008.4 0.0
19/10:00pm 41.0 38.1 8.2 14 19.0 ESE 13 17 7 9 1008.5 1008.1 0.0
19/09:30pm 40.7 38.5 8.0 14 18.8 ESE 9 11 5 6 1008.2 1007.8 0.0
19/09:00pm 41.2 39.5 8.4 14 19.1 ESE 7 9 4 5 1007.9 1007.5 0.0
19/08:30pm 42.2 40.1 8.1 13 19.8 ESE 9 13 5 7 1007.7 1007.3 0.0
19/08:00pm 42.6 40.1 8.4 13 20.0 ESE 11 15 6 8 1007.4 1007.0 0.0
19/07:30pm 43.4 41.2 7.8 12 20.7 ESE 9 13 5 7 1007.0 1006.6 0.0
19/07:00pm 44.2 40.2 8.4 12 21.1 E 19 30 10 16 1006.7 1006.3 0.0
19/06:30pm 44.4 40.0 7.3 11 21.5 SE 20 32 11 17 1006.6 1006.2 0.0
19/06:00pm 45.0 40.7 7.7 11 21.8 ESE 20 35 11 19 1006.5 1006.1 0.0
19/05:30pm 45.3 40.7 8.0 11 21.9 SE 22 32 12 17 1006.6 1006.2 0.0
19/05:00pm 45.4 40.4 8.0 11 22.0 ENE 24 37 13 20 1006.7 1006.3 0.0
19/04:30pm 45.6 41.0 8.2 11 22.1 E 22 37 12 20 1006.9 1006.5 0.0
19/04:00pm 45.2 41.1 7.9 11 21.9 E 19 33 10 18 1007.3 1006.9 0.0
19/03:30pm 45.0 41.9 9.0 12 21.4 E 15 28 8 15 1007.6 1007.2 0.0
19/03:00pm 44.5 40.6 8.6 12 21.2 E 19 32 10 17 1008.1 1007.7 0.0
19/02:30pm 44.8 41.3 10.1 13 20.9 SE 19 26 10 14 1008.4 1008.0 0.0
19/02:00pm 44.3 41.4 9.7 13 20.7 E 15 22 8 12 1008.8 1008.4 0.0
19/01:30pm 43.3 41.3 10.0 14 19.9 E 11 28 6 15 1009.2 1008.8 0.0
19/01:00pm 43.7 41.7 10.3 14 20.1 ENE 11 19 6 10 1009.5 1009.1 0.0
19/12:30pm 42.9 40.4 9.7 14 19.8 N 13 24 7 13 1009.9 1009.5 0.0
19/12:00pm 42.5 39.5 9.4 14 19.6 NNE 15 26 8 14 1010.1 1009.7 0.0
19/11:30am 41.9 39.5 9.9 15 19.0 N 13 20 7 11 1010.3 1009.9 0.0
19/11:00am 41.5 38.2 9.6 15 18.9 NNE 17 28 9 15 1010.5 1010.1 0.0
19/10:30am 41.3 37.9 10.4 16 18.5 N 19 28 10 15 1010.7 1010.3 0.0
19/10:00am 39.7 36.0 10.1 17 17.5 N 20 26 11 14 1010.7 1010.3 0.0
19/09:30am 38.8 34.5 9.4 17 17.2 N 22 28 12 15 1010.6 1010.2 0.0
19/09:00am 38.1 33.7 10.5 19 16.3 N 24 30 13 16 1010.7 1010.3 0.0
19/08:30am 37.6 33.7 10.8 20 15.9 N 22 28 12 15 1010.7 1010.3 0.0
19/08:00am 36.2 33.9 10.4 21 15.1 N 13 19 7 10 1010.5 1010.1 0.0

Other Formats:

Comma delimited format used in spreadsheet applications
http://www.bom.gov.au/fwo/IDQ60801/IDQ60801.95482.axf

JavaScript Object Notation format (JSON) in row-major order
http://www.bom.gov.au/fwo/IDQ60801/IDQ60801.95482.json